Latest Weather Observations for Campania

IDT60901

Issued at 9:01 pm EDT Sunday 1 February 2015 (issued every 10 minutes, with the page automatically refreshed every 10 minutes)

About weather observations | Map of Hobart area stations | Latest observations for Hobart area | Other Formats
Station Details ID: 094212 Name: CAMPANIA (KINCORA) Lat: -42.69 Lon: 147.43 Height: 45.0 m
Data from the previous 72 hours. | See also: Recent months at Campania
Date/Time
EDT
Tmp

°C
App
Tmp
°C
Dew
Point
°C
Rel
Hum
%
Delta-T

°C
Wind Press
QNH
hPa
Press
MSL
hPa
Rain
since
9 am
mm
Dir
 
Spd
km/h
Gust
km/h
Spd
kts
Gust
kts
01/09:00pm 13.1 8.2 8.6 74 2.3 S 24 32 13 17 - - 0.0
01/08:30pm 13.3 9.1 8.4 72 2.4 S 20 30 11 16 - - 0.0
01/08:00pm 13.6 9.0 8.2 70 2.7 S 22 30 12 16 - - 0.0
01/07:30pm 13.6 8.2 8.2 70 2.7 S 26 37 14 20 - - 0.0
01/07:00pm 14.1 9.1 7.9 66 3.1 S 24 35 13 19 - - 0.0
01/06:30pm 14.1 8.8 8.3 68 2.9 S 26 43 14 23 - - 0.0
01/06:00pm 14.4 8.7 8.4 67 3.0 S 28 39 15 21 - - 0.0
01/05:30pm 14.6 9.0 8.8 68 2.9 SSE 28 37 15 20 - - 0.0
01/05:00pm 14.9 9.4 9.1 68 3.0 SSE 28 37 15 20 - - 0.0
01/04:30pm 15.0 8.7 8.9 67 3.1 S 32 41 17 22 - - 0.0
01/04:12pm 15.1 9.2 9.2 68 3.0 SSE 30 48 16 26 - - 0.0
01/04:00pm 15.3 9.6 9.7 69 2.9 SSE 30 41 16 22 - - 0.0
01/03:30pm 14.9 9.0 9.1 68 3.0 S 30 43 16 23 - - 0.0
01/03:00pm 15.0 8.7 9.6 70 2.8 SSE 33 46 18 25 - - 0.0
01/02:30pm 15.1 8.8 9.7 70 2.8 SSE 33 44 18 24 - - 0.0
01/02:00pm 15.9 10.5 9.6 66 3.3 SSE 28 41 15 22 - - 0.0
01/01:30pm 15.1 9.3 9.5 69 2.9 SSE 30 41 16 22 - - 0.0
01/01:00pm 16.2 12.0 9.8 66 3.4 S 22 33 12 18 - - 0.0
01/12:30pm 13.8 9.5 9.3 74 2.3 S 22 32 12 17 - - 0.0
01/12:00pm 15.8 10.0 9.5 66 3.3 S 30 39 16 21 - - 0.0
01/11:30am 13.7 9.4 9.4 75 2.2 S 22 30 12 16 - - 0.0
01/11:00am 14.5 9.5 8.2 66 3.2 S 24 33 13 18 - - 0.0
01/10:30am 13.8 8.9 8.6 71 2.6 SSW 24 33 13 18 - - 0.0
01/10:00am 13.0 8.6 8.9 76 2.1 SSW 22 28 12 15 - - 0.0
01/09:30am 12.2 8.9 9.4 83 1.4 S 17 24 9 13 - - 0.0
01/09:00am 12.2 8.4 9.2 82 1.5 S 19 30 10 16 - - 2.0
01/08:30am 12.1 8.7 9.3 83 1.4 S 17 24 9 13 - - 2.0
01/08:00am 12.1 8.3 9.1 82 1.5 S 19 26 10 14 - - 2.0
01/07:30am 12.3 8.5 9.0 80 1.7 S 19 22 10 12 - - 2.0
01/07:00am 12.0 8.7 9.4 84 1.3 S 17 22 9 12 - - 2.0
01/06:30am 11.9 8.0 9.5 85 1.2 S 20 28 11 15 - - 2.0
01/06:00am 12.0 9.0 9.4 84 1.3 S 15 20 8 11 - - 2.0
01/05:30am 12.0 8.7 9.6 85 1.2 S 17 24 9 13 - - 2.0
01/05:00am 12.2 8.5 9.6 84 1.3 S 19 24 10 13 - - 2.0
01/04:30am 12.0 8.8 9.9 87 1.1 SSE 17 22 9 12 - - 2.0
01/04:00am 12.0 8.4 10.4 90 0.8 S 20 26 11 14 - - 2.0
01/03:30am 12.0 8.6 10.6 91 0.7 S 19 28 10 15 - - 2.0
01/03:00am 12.0 8.6 10.7 92 0.7 SSE 19 22 10 12 - - 2.0
01/02:30am 12.0 8.8 11.1 94 0.5 S 19 24 10 13 - - 2.0
01/02:00am 11.9 8.7 11.4 97 0.3 SSE 19 26 10 14 - - 2.0
01/01:30am 11.8 9.7 11.3 97 0.3 SSE 13 17 7 9 - - 2.0
01/01:00am 11.9 9.1 11.3 96 0.3 S 17 24 9 13 - - 1.8
01/12:30am 12.2 9.0 11.3 94 0.5 S 19 22 10 12 - - 1.6
01/12:00am 12.5 9.6 11.1 91 0.7 S 17 26 9 14 - - 1.6
 
Date/Time
EDT
Tmp

°C
App
Tmp
°C
Dew
Point
°C
Rel
Hum
%
Delta-T

°C
Wind Press
QNH
hPa
Press
MSL
hPa
Rain
since
9 am
mm
Dir
 
Spd
km/h
Gust
km/h
Spd
kts
Gust
kts
31/11:30pm 12.7 10.6 11.1 90 0.8 SSW 13 17 7 9 - - 1.6
31/11:00pm 12.7 10.5 10.9 89 0.9 SSW 13 20 7 11 - - 1.6
31/10:30pm 13.3 10.3 10.5 83 1.5 SSW 17 22 9 12 - - 1.6
31/10:00pm 13.4 10.5 11.1 86 1.2 S 17 22 9 12 - - 1.6
31/09:30pm 13.5 10.7 11.2 86 1.2 S 17 28 9 15 - - 1.6
31/09:00pm 13.6 10.8 11.5 87 1.1 S 17 24 9 13 - - 1.6
31/08:30pm 13.7 10.3 11.2 85 1.3 S 20 32 11 17 - - 1.6
31/08:00pm 14.2 10.7 11.0 81 1.7 S 20 30 11 16 - - 1.6
31/07:30pm 14.4 10.9 11.0 80 1.8 S 20 32 11 17 - - 1.6
31/07:00pm 14.6 10.9 11.4 81 1.7 S 22 35 12 19 - - 1.6
31/06:30pm 14.5 9.7 11.6 83 1.6 S 28 39 15 21 - - 1.6
31/06:00pm 14.8 10.0 11.8 82 1.6 S 28 41 15 22 - - 1.6
31/05:30pm 14.8 10.0 11.8 82 1.6 S 28 39 15 21 - - 1.6
31/05:00pm 14.4 10.6 12.4 88 1.1 S 24 33 13 18 - - 1.6
31/04:30pm 14.6 10.4 12.3 86 1.3 S 26 35 14 19 - - 1.6
31/04:00pm 14.6 10.4 12.5 87 1.1 S 26 39 14 21 - - 1.6
31/03:30pm 14.8 10.2 12.3 85 1.4 S 28 41 15 22 - - 1.6
31/03:00pm 14.4 10.6 12.4 88 1.1 S 24 35 13 19 - - 1.6
31/02:30pm 14.1 9.2 12.5 90 0.9 S 30 41 16 22 - - 1.6
31/02:00pm 14.0 9.9 12.7 92 0.7 S 26 33 14 18 - - 1.6
31/01:30pm 14.0 9.9 12.7 92 0.7 S 26 41 14 22 - - 1.6
31/01:00pm 13.8 9.3 12.7 93 0.6 S 28 37 15 20 - - 1.6
31/12:49pm 13.8 9.3 12.5 92 0.7 S 28 46 15 25 - - 1.6
31/12:30pm 13.8 9.0 12.9 94 0.5 S 30 39 16 21 - - 1.6
31/12:00pm 13.8 10.2 13.0 95 0.4 S 24 33 13 18 - - 1.6
31/11:30am 13.8 10.6 13.0 95 0.4 SSW 22 30 12 16 - - 1.6
31/11:00am 13.6 10.0 13.0 96 0.3 S 24 32 13 17 - - 1.4
31/10:30am 13.5 10.6 12.9 96 0.3 S 20 28 11 15 - - 1.0
31/10:00am 13.6 10.8 13.1 97 0.3 S 20 28 11 15 - - 0.8
31/09:30am 13.3 10.6 12.8 97 0.3 SSW 19 28 10 15 - - 0.4
31/09:00am 13.3 10.6 12.8 97 0.3 S 19 20 10 11 - - 2.2
31/08:30am 13.2 10.4 12.7 97 0.3 S 19 28 10 15 - - 1.6
31/08:00am 13.0 10.2 12.5 97 0.3 S 19 24 10 13 - - 1.4
31/07:30am 12.9 9.5 12.4 97 0.3 S 22 30 12 16 - - 1.4
31/07:00am 12.9 10.0 12.4 97 0.3 S 19 30 10 16 - - 1.2
31/06:30am 12.7 10.5 12.2 97 0.3 S 15 24 8 13 - - 0.8
31/06:00am 12.7 9.7 12.1 96 0.3 S 19 24 10 13 - - 0.6
31/05:30am 12.7 9.7 11.9 95 0.4 S 19 26 10 14 - - 0.4
31/05:00am 12.6 9.6 12.0 96 0.3 S 19 24 10 13 - - 0.4
31/04:30am 12.6 9.3 11.7 94 0.5 SSW 20 32 11 17 - - 0.4
31/04:00am 12.6 9.3 11.5 93 0.6 S 20 28 11 15 - - 0.4
31/03:30am 12.7 9.3 11.4 92 0.7 S 20 32 11 17 - - 0.4
31/03:00am 12.6 8.1 11.3 92 0.7 SSW 26 32 14 17 - - 0.2
31/02:30am 12.6 9.2 11.2 91 0.7 S 20 28 11 15 - - 0.2
31/02:00am 12.7 8.4 10.8 88 1.0 S 24 33 13 18 - - 0.2
31/01:30am 12.7 8.6 10.2 85 1.3 S 22 30 12 16 - - 0.2
31/01:00am 12.4 8.9 10.1 86 1.2 S 19 26 10 14 - - 0.2
31/12:30am 12.3 8.7 9.9 85 1.2 SSW 19 33 10 18 - - 0.2
31/12:00am 12.5 8.1 10.4 87 1.1 SSW 24 35 13 19 - - 0.2
 
Date/Time
EDT
Tmp

°C
App
Tmp
°C
Dew
Point
°C
Rel
Hum
%
Delta-T

°C
Wind Press
QNH
hPa
Press
MSL
hPa
Rain
since
9 am
mm
Dir
 
Spd
km/h
Gust
km/h
Spd
kts
Gust
kts
30/11:30pm 12.5 8.8 10.2 86 1.2 S 20 30 11 16 - - 0.2
30/11:00pm 13.2 8.2 9.5 78 1.9 S 26 35 14 19 - - 0.2
30/10:30pm 13.5 9.6 9.6 77 2.0 S 20 32 11 17 - - 0.2
30/10:00pm 13.9 9.2 9.1 73 2.4 S 24 35 13 19 - - 0.2
30/09:30pm 14.0 9.2 9.0 72 2.5 S 24 33 13 18 - - 0.2
30/09:00pm 14.1 8.2 9.1 72 2.5 S 30 39 16 21 - - 0.2
30/08:30pm 14.2 9.1 9.2 72 2.6 S 26 35 14 19 - - 0.2
30/08:00pm 14.4 9.4 9.4 72 2.6 S 26 37 14 20 - - 0.2
30/07:30pm 14.2 9.4 10.2 77 2.1 S 26 33 14 18 - - 0.2
30/07:00pm 14.3 8.1 9.9 75 2.3 S 33 39 18 21 - - 0.2
30/06:30pm 14.8 9.8 9.4 70 2.8 S 26 35 14 19 - - 0.2
30/06:00pm 14.6 9.4 10.2 75 2.3 S 28 41 15 22 - - 0.2
30/05:30pm 13.8 8.9 11.3 85 1.3 S 28 35 15 19 - - 0.2
30/05:00pm 16.1 10.8 9.8 66 3.3 S 28 46 15 25 - - 0.2
30/04:30pm 15.0 10.0 11.0 77 2.1 S 28 39 15 21 - - 0.2
30/04:00pm 14.8 9.3 10.6 76 2.2 S 30 43 16 23 - - 0.2
30/03:30pm 13.2 7.5 11.1 87 1.1 SSE 32 52 17 28 - - 0.2
30/03:23pm 14.7 9.0 9.9 73 2.5 S 30 48 16 26 - - 0.2
30/03:00pm 15.5 9.4 9.6 68 3.1 S 32 44 17 24 - - 0.2
30/02:30pm 15.7 9.6 9.8 68 3.1 SSE 32 44 17 24 - - 0.2
30/02:00pm 14.8 10.0 11.6 81 1.7 S 28 41 15 22 - - 0.2
30/01:30pm 14.1 8.4 11.3 83 1.5 S 32 50 17 27 - - 0.2
30/01:01pm 15.9 8.9 8.4 61 3.8 SSE 35 54 19 29 - - 0.2
30/01:00pm 16.3 9.9 9.5 64 3.5 SSE 33 50 18 27 - - 0.2
30/12:30pm 16.3 9.6 9.5 64 3.5 S 35 54 19 29 - - 0.2
30/12:12pm 15.3 8.9 9.2 67 3.1 SSE 33 54 18 29 - - 0.2
30/12:00pm 16.1 9.3 9.1 63 3.6 SSE 35 46 19 25 - - 0.2
30/11:30am 16.2 9.9 10.9 71 2.8 S 35 54 19 29 - - 0.2
30/11:15am 14.7 8.6 10.3 75 2.3 S 33 52 18 28 - - 0.2
30/11:00am 15.0 8.6 10.8 76 2.2 S 35 50 19 27 - - 0.2
30/10:30am 14.1 8.8 11.1 82 1.6 SSE 30 39 16 21 - - 0.2
30/10:00am 14.0 10.2 11.0 82 1.6 SSE 22 35 12 19 - - 0.2
30/09:30am 12.9 9.7 12.0 94 0.5 SSE 20 32 11 17 - - 0.0
30/09:00am 12.1 6.8 11.3 95 0.4 SSE 30 39 16 21 - - 1.2
30/08:38am 11.8 6.7 10.5 92 0.7 SSE 28 46 15 25 - - 1.0
30/08:30am 12.4 7.4 11.1 92 0.7 SSE 28 41 15 22 - - 0.8
30/08:00am 12.3 7.6 10.7 90 0.8 S 26 35 14 19 - - 0.6
30/07:30am 12.6 9.0 10.7 88 1.0 SSE 20 28 11 15 - - 0.2
30/07:00am 12.7 9.0 10.1 84 1.3 SSE 20 30 11 16 - - 0.0
30/06:30am 12.3 8.6 10.2 87 1.1 SSE 20 30 11 16 - - 0.0
30/06:00am 12.2 9.1 10.4 89 0.9 S 17 32 9 17 - - 0.0
30/05:30am 12.0 8.5 10.2 89 0.9 S 19 26 10 14 - - 0.0
30/05:00am 11.9 8.2 10.3 90 0.8 S 20 30 11 16 - - 0.0
30/04:30am 12.6 8.4 9.6 82 1.5 S 22 32 12 17 - - 0.0
30/04:00am 12.4 8.5 9.6 83 1.4 S 20 30 11 16 - - 0.0
30/03:30am 12.2 8.7 8.7 79 1.7 S 17 24 9 13 - - 0.0
30/03:00am 12.9 8.4 6.9 67 2.9 SSE 20 33 11 18 - - 0.0
30/02:30am 12.7 8.3 6.7 67 2.9 SSE 19 28 10 15 - - 0.0
30/02:00am 12.5 7.6 7.0 69 2.7 SSE 22 30 12 16 - - 0.0
30/01:30am 12.5 8.6 7.2 70 2.6 S 17 26 9 14 - - 0.0
30/01:00am 12.8 8.5 6.8 67 2.9 S 19 33 10 18 - - 0.0
30/12:30am 12.6 7.7 7.1 69 2.7 SSE 22 35 12 19 - - 0.0
30/12:00am 12.5 9.1 7.8 73 2.3 SE 15 22 8 12 - - 0.0
 
Date/Time
EDT
Tmp

°C
App
Tmp
°C
Dew
Point
°C
Rel
Hum
%
Delta-T

°C
Wind Press
QNH
hPa
Press
MSL
hPa
Rain
since
9 am
mm
Dir
 
Spd
km/h
Gust
km/h
Spd
kts
Gust
kts
29/11:30pm 12.6 7.9 7.9 73 2.3 S 22 32 12 17 - - 0.0
29/11:00pm 13.1 8.6 6.9 66 3.0 SSE 20 32 11 17 - - 0.0
29/10:30pm 12.9 8.4 6.3 64 3.1 S 19 24 10 13 - - 0.0
29/10:00pm 12.2 9.0 8.3 77 1.9 S 15 20 8 11 - - 0.0
29/09:30pm 12.3 7.8 8.6 78 1.8 S 22 30 12 16 - - 0.0

Latest Capital City Observations: Canberra | Sydney | Melbourne | Brisbane | Adelaide | Perth | Hobart | Darwin

Other Formats:

Comma delimited format used in spreadsheet applications
http://www.bom.gov.au/fwo/IDT60901/IDT60901.95972.axf

JavaScript Object Notation format (JSON) in row-major order
http://www.bom.gov.au/fwo/IDT60901/IDT60901.95972.json